Time,TemperatureF,DewpointF,PressureIn,WindDirection,WindDirectionDegrees,WindSpeedMPH,WindSpeedGustMPH,Humidity,HourlyPrecipIn,Conditions,Clouds,dailyrainin,SoftwareType,DateUTC
2013-12-10 00:01:00,-1.9,-6.3,30.23,WSW,238,0.0,0.0,81,0.00,,---,0.00,VWS V14.01,2013-12-10 06:01:00,
2013-12-10 00:06:00,-2.0,-6.7,30.23,SW,232,0.0,0.0,80,0.00,,---,0.00,VWS V14.01,2013-12-10 06:06:00,
2013-12-10 00:11:00,-2.2,-7.1,30.23,SE,136,1.8,1.8,79,0.00,,---,0.00,VWS V14.01,2013-12-10 06:11:00,
2013-12-10 00:16:00,-2.6,-7.5,30.23,ESE,117,0.0,0.0,79,0.00,,---,0.00,VWS V14.01,2013-12-10 06:16:00,
2013-12-10 00:21:00,-3.4,-8.5,30.22,South,173,1.8,3.6,78,0.00,,---,0.00,VWS V14.01,2013-12-10 06:21:00,
2013-12-10 00:26:00,-3.8,-8.9,30.22,West,268,3.6,3.6,78,0.00,,---,0.00,VWS V14.01,2013-12-10 06:26:00,
2013-12-10 00:31:00,-3.9,-9.0,30.22,SSE,148,0.0,3.6,78,0.00,,---,0.00,VWS V14.01,2013-12-10 06:31:00,
2013-12-10 00:36:00,-3.9,-8.7,30.22,South,190,0.0,0.0,79,0.00,,---,0.00,VWS V14.01,2013-12-10 06:36:00,
2013-12-10 00:41:00,-3.7,-8.6,30.22,South,172,1.8,1.8,79,0.00,,---,0.00,VWS V14.01,2013-12-10 06:41:00,
2013-12-10 00:46:00,-3.6,-8.4,30.21,SSW,204,0.0,0.0,79,0.00,,---,0.00,VWS V14.01,2013-12-10 06:46:00,
2013-12-10 00:51:00,-3.6,-8.4,30.21,SW,219,1.8,3.6,79,0.00,,---,0.00,VWS V14.01,2013-12-10 06:51:00,
2013-12-10 00:56:00,-3.6,-8.4,30.21,SW,217,0.0,0.0,79,0.00,,---,0.00,VWS V14.01,2013-12-10 06:56:00,
2013-12-10 01:01:00,-3.9,-8.7,30.21,SW,217,1.8,1.8,79,0.00,,---,0.00,VWS V14.01,2013-12-10 07:01:00,
2013-12-10 01:06:00,-3.8,-8.6,30.20,SSW,200,1.8,3.6,79,0.00,,---,0.00,VWS V14.01,2013-12-10 07:06:00,
2013-12-10 01:11:00,-3.7,-8.3,30.20,SSW,197,1.8,3.6,80,0.00,,---,0.00,VWS V14.01,2013-12-10 07:11:00,
2013-12-10 01:16:00,-3.5,-8.1,30.20,WSW,245,0.0,1.8,80,0.00,,---,0.00,VWS V14.01,2013-12-10 07:16:00,
2013-12-10 01:21:00,-3.3,-7.9,30.20,SSW,203,5.4,5.4,80,0.00,,---,0.00,VWS V14.01,2013-12-10 07:21:00,
2013-12-10 01:26:00,-3.0,-7.9,30.19,SSE,151,0.0,3.6,79,0.00,,---,0.00,VWS V14.01,2013-12-10 07:26:00,
2013-12-10 01:31:00,-3.0,-7.9,30.19,SSE,150,0.0,0.0,79,0.00,,---,0.00,VWS V14.01,2013-12-10 07:31:00,
2013-12-10 01:36:00,-3.2,-8.3,30.19,SSE,163,0.0,0.0,78,0.00,,---,0.00,VWS V14.01,2013-12-10 07:36:00,
2013-12-10 01:41:00,-3.4,-8.5,30.19,ESE,123,0.0,1.8,78,0.00,,---,0.00,VWS V14.01,2013-12-10 07:41:00,
2013-12-10 01:46:00,-3.7,-8.8,30.18,ESE,123,0.0,0.0,78,0.00,,---,0.00,VWS V14.01,2013-12-10 07:46:00,
2013-12-10 01:51:00,-4.0,-9.1,30.18,ESE,122,0.0,0.0,78,0.00,,---,0.00,VWS V14.01,2013-12-10 07:51:00,
2013-12-10 01:56:00,-4.4,-9.5,30.17,SE,125,1.8,1.8,78,0.00,,---,0.00,VWS V14.01,2013-12-10 07:56:00,
2013-12-10 02:01:00,-4.6,-9.7,30.17,ESE,122,0.0,1.8,78,0.00,,---,0.00,VWS V14.01,2013-12-10 08:01:00,
2013-12-10 02:06:00,-5.0,-10.1,30.17,ESE,123,1.8,1.8,78,0.00,,---,0.00,VWS V14.01,2013-12-10 08:06:00,
2013-12-10 02:11:00,-5.3,-10.4,30.16,SE,129,0.0,0.0,78,0.00,,---,0.00,VWS V14.01,2013-12-10 08:11:00,
2013-12-10 02:16:00,-5.8,-10.8,30.16,SE,129,0.0,0.0,78,0.00,,---,0.00,VWS V14.01,2013-12-10 08:16:00,
2013-12-10 02:21:00,-5.9,-10.7,30.16,SE,129,1.8,1.8,79,0.00,,---,0.00,VWS V14.01,2013-12-10 08:21:00,
2013-12-10 02:26:00,-5.8,-10.6,30.15,ESE,120,0.0,0.0,79,0.00,,---,0.00,VWS V14.01,2013-12-10 08:26:00,
2013-12-10 02:31:00,-5.2,-9.5,30.14,SW,222,3.6,3.6,81,0.00,,---,0.00,VWS V14.01,2013-12-10 08:31:00,
2013-12-10 02:36:00,-4.5,-8.9,30.14,SW,225,1.8,1.8,81,0.00,,---,0.00,VWS V14.01,2013-12-10 08:36:00,
2013-12-10 02:41:00,-4.3,-8.7,30.13,South,176,1.8,1.8,81,0.00,,---,0.00,VWS V14.01,2013-12-10 08:41:00,
2013-12-10 02:46:00,-4.3,-8.9,30.14,ESE,106,0.0,0.0,80,0.00,,---,0.00,VWS V14.01,2013-12-10 08:46:00,
2013-12-10 02:51:00,-4.5,-9.3,30.14,ESE,110,1.8,1.8,79,0.00,,---,0.00,VWS V14.01,2013-12-10 08:51:00,
2013-12-10 02:56:00,-4.5,-9.3,30.13,SSW,210,0.0,0.0,79,0.00,,---,0.00,VWS V14.01,2013-12-10 08:56:00,
2013-12-10 03:01:00,-4.3,-8.9,30.12,SSW,210,3.6,3.6,80,0.00,,---,0.00,VWS V14.01,2013-12-10 09:01:00,
2013-12-10 03:04:00,-4.0,-8.4,30.12,ESE,120,1.8,3.6,81,0.00,,---,0.00,VWS V14.01,2013-12-10 09:04:00,
2013-12-10 03:09:00,-3.5,-8.1,30.12,ESE,114,1.8,3.6,80,0.00,,---,0.00,VWS V14.01,2013-12-10 09:09:00,
2013-12-10 03:14:00,-3.3,-7.9,30.11,ESE,112,1.8,1.8,80,0.00,,---,0.00,VWS V14.01,2013-12-10 09:14:00,
2013-12-10 03:19:00,-3.2,-7.8,30.11,ESE,108,0.0,3.6,80,0.00,,---,0.00,VWS V14.01,2013-12-10 09:19:00,
2013-12-10 03:24:00,-3.1,-7.7,30.11,ESE,108,0.0,1.8,80,0.00,,---,0.00,VWS V14.01,2013-12-10 09:24:00,
2013-12-10 03:29:00,-3.1,-8.0,30.11,ESE,114,0.0,3.6,79,0.00,,---,0.00,VWS V14.01,2013-12-10 09:29:00,
2013-12-10 03:34:00,-3.1,-8.0,30.10,WSW,252,0.0,1.8,79,0.00,,---,0.00,VWS V14.01,2013-12-10 09:34:00,
2013-12-10 03:39:00,-3.0,-7.9,30.10,SE,137,0.0,5.4,79,0.00,,---,0.00,VWS V14.01,2013-12-10 09:39:00,
2013-12-10 03:44:00,-2.7,-7.3,30.09,SSW,204,0.0,3.6,80,0.00,,---,0.00,VWS V14.01,2013-12-10 09:44:00,
2013-12-10 03:49:00,-2.2,-6.8,30.08,South,174,0.0,3.6,80,0.00,,---,0.00,VWS V14.01,2013-12-10 09:49:00,
2013-12-10 03:54:00,-1.6,-6.0,30.07,SSW,210,0.0,5.4,81,0.00,,---,0.00,VWS V14.01,2013-12-10 09:54:00,
2013-12-10 03:59:00,0.3,-3.7,30.07,SSE,165,5.4,16.2,83,0.00,,---,0.00,VWS V14.01,2013-12-10 09:59:00,
2013-12-10 04:04:00,2.8,-1.7,30.06,SSW,197,14.4,19.8,81,0.00,,---,0.00,VWS V14.01,2013-12-10 10:04:00,
2013-12-10 04:09:00,4.3,-1.2,30.05,SSW,212,14.4,21.6,77,0.00,,---,0.00,VWS V14.01,2013-12-10 10:09:00,
2013-12-10 04:14:00,5.2,-0.9,30.05,South,169,5.4,18.0,75,0.00,,---,0.00,VWS V14.01,2013-12-10 10:14:00,
2013-12-10 04:19:00,5.9,-1.0,30.05,South,174,9.0,21.6,73,0.00,,---,0.00,VWS V14.01,2013-12-10 10:19:00,
2013-12-10 04:24:00,6.3,-0.9,30.04,SW,235,9.0,21.6,72,0.00,,---,0.00,VWS V14.01,2013-12-10 10:24:00,
2013-12-10 04:29:00,6.5,-1.0,30.04,SSE,165,5.4,21.6,71,0.00,,---,0.00,VWS V14.01,2013-12-10 10:29:00,
2013-12-10 04:34:00,6.8,-1.0,30.05,South,179,9.0,23.4,70,0.00,,---,0.00,VWS V14.01,2013-12-10 10:34:00,
2013-12-10 04:39:00,7.0,-0.8,30.04,SSW,200,7.2,14.4,70,0.00,,---,0.00,VWS V14.01,2013-12-10 10:39:00,
2013-12-10 04:44:00,7.1,-1.0,30.04,SSW,194,10.8,18.0,69,0.00,,---,0.00,VWS V14.01,2013-12-10 10:44:00,
2013-12-10 04:49:00,7.3,-0.8,30.03,SSW,207,14.4,14.4,69,0.00,,---,0.00,VWS V14.01,2013-12-10 10:49:00,
2013-12-10 04:54:00,7.4,-1.0,30.03,SW,221,16.2,19.8,68,0.00,,---,0.00,VWS V14.01,2013-12-10 10:54:00,
2013-12-10 04:59:00,7.5,-0.6,30.03,SW,221,10.8,14.4,69,0.00,,---,0.00,VWS V14.01,2013-12-10 10:59:00,
2013-12-10 05:04:00,7.8,-0.6,30.03,WSW,245,3.6,12.6,68,0.00,,---,0.00,VWS V14.01,2013-12-10 11:04:00,
2013-12-10 05:09:00,7.9,-0.5,30.03,WNW,288,5.4,14.4,68,0.00,,---,0.00,VWS V14.01,2013-12-10 11:09:00,
2013-12-10 05:14:00,8.2,-0.5,30.04,West,268,9.0,14.4,67,0.00,,---,0.00,VWS V14.01,2013-12-10 11:14:00,
2013-12-10 05:19:00,8.5,-0.2,30.04,SW,222,3.6,14.4,67,0.00,,---,0.00,VWS V14.01,2013-12-10 11:19:00,
2013-12-10 05:24:00,8.6,-0.4,30.04,SW,233,3.6,10.8,66,0.00,,---,0.00,VWS V14.01,2013-12-10 11:24:00,
2013-12-10 05:29:00,8.6,-0.4,30.03,North,5,3.6,12.6,66,0.00,,---,0.00,VWS V14.01,2013-12-10 11:29:00,
2013-12-10 05:34:00,8.6,-0.4,30.03,SW,228,3.6,7.2,66,0.00,,---,0.00,VWS V14.01,2013-12-10 11:34:00,
2013-12-10 05:39:00,8.6,-0.4,30.03,West,266,9.0,12.6,66,0.00,,---,0.00,VWS V14.01,2013-12-10 11:39:00,
2013-12-10 05:44:00,8.6,-0.4,30.02,WSW,255,5.4,12.6,66,0.00,,---,0.00,VWS V14.01,2013-12-10 11:44:00,
2013-12-10 05:49:00,8.7,0.0,30.02,WNW,283,3.6,10.8,67,0.00,,---,0.00,VWS V14.01,2013-12-10 11:49:00,
2013-12-10 05:54:00,8.7,0.0,30.02,SW,226,0.0,5.4,67,0.00,,---,0.00,VWS V14.01,2013-12-10 11:54:00,
2013-12-10 05:59:00,8.9,0.2,30.02,WSW,255,5.4,14.4,67,0.00,,---,0.00,VWS V14.01,2013-12-10 11:59:00,
2013-12-10 06:04:00,9.2,0.5,30.02,West,266,3.6,14.4,67,0.00,,---,0.00,VWS V14.01,2013-12-10 12:04:00,
2013-12-10 06:09:00,9.4,0.7,30.02,SW,235,1.8,14.4,67,0.00,,---,0.00,VWS V14.01,2013-12-10 12:09:00,
2013-12-10 06:11:00,9.6,0.9,30.02,West,273,3.6,10.8,67,0.00,,---,0.00,VWS V14.01,2013-12-10 12:11:00,
2013-12-10 06:16:00,10.0,0.9,30.01,SW,219,7.2,9.0,66,0.00,,---,0.00,VWS V14.01,2013-12-10 12:16:00,
2013-12-10 06:21:00,10.3,1.2,30.02,SSW,209,3.6,7.2,66,0.00,,---,0.00,VWS V14.01,2013-12-10 12:21:00,
2013-12-10 06:26:00,10.6,1.2,30.01,WSW,250,5.4,10.8,65,0.00,,---,0.00,VWS V14.01,2013-12-10 12:26:00,
2013-12-10 06:31:00,10.8,1.4,30.01,WSW,250,5.4,7.2,65,0.00,,---,0.00,VWS V14.01,2013-12-10 12:31:00,
2013-12-10 06:36:00,11.1,1.4,30.01,SSE,151,7.2,7.2,64,0.00,,---,0.00,VWS V14.01,2013-12-10 12:36:00,
2013-12-10 06:41:00,11.3,1.9,30.02,WSW,245,3.6,5.4,65,0.00,,---,0.00,VWS V14.01,2013-12-10 12:41:00,
2013-12-10 06:46:00,11.5,2.4,30.02,WSW,238,5.4,7.2,66,0.00,,---,0.00,VWS V14.01,2013-12-10 12:46:00,
2013-12-10 06:51:00,11.6,3.1,30.02,WNW,302,5.4,5.4,68,0.00,,---,0.00,VWS V14.01,2013-12-10 12:51:00,
2013-12-10 06:56:00,11.7,3.5,30.01,West,264,5.4,10.8,69,0.00,,---,0.00,VWS V14.01,2013-12-10 12:56:00,
2013-12-10 07:01:00,11.8,3.3,30.02,WSW,257,3.6,7.2,68,0.00,,---,0.00,VWS V14.01,2013-12-10 13:01:00,
2013-12-10 07:06:00,12.0,3.5,30.02,WSW,257,7.2,7.2,68,0.00,,---,0.00,VWS V14.01,2013-12-10 13:06:00,
2013-12-10 07:11:00,12.2,3.3,30.01,NW,326,3.6,7.2,67,0.00,,---,0.00,VWS V14.01,2013-12-10 13:11:00,
2013-12-10 07:16:00,12.4,3.2,30.02,WSW,249,5.4,5.4,66,0.00,,---,0.00,VWS V14.01,2013-12-10 13:16:00,
2013-12-10 07:21:00,12.6,3.4,30.02,WSW,238,3.6,5.4,66,0.00,,---,0.00,VWS V14.01,2013-12-10 13:21:00,
2013-12-10 07:26:00,12.8,3.0,30.02,West,262,12.6,12.6,64,0.00,,---,0.00,VWS V14.01,2013-12-10 13:26:00,
2013-12-10 07:31:00,12.7,2.9,30.02,SSE,158,3.6,5.4,64,0.00,,---,0.00,VWS V14.01,2013-12-10 13:31:00,
2013-12-10 07:36:00,12.6,2.8,30.02,South,186,7.2,9.0,64,0.00,,---,0.00,VWS V14.01,2013-12-10 13:36:00,
2013-12-10 07:41:00,12.3,2.5,30.03,SSW,211,1.8,7.2,64,0.00,,---,0.00,VWS V14.01,2013-12-10 13:41:00,
2013-12-10 07:46:00,12.3,2.5,30.03,WNW,290,3.6,10.8,64,0.00,,---,0.00,VWS V14.01,2013-12-10 13:46:00,
2013-12-10 07:51:00,12.2,2.4,30.02,WNW,291,5.4,12.6,64,0.00,,---,0.00,VWS V14.01,2013-12-10 13:51:00,
2013-12-10 07:56:00,12.2,2.4,30.03,WSW,242,1.8,7.2,64,0.00,,---,0.00,VWS V14.01,2013-12-10 13:56:00,
2013-12-10 08:01:00,12.3,2.5,30.03,WNW,285,5.4,9.0,64,0.00,,---,0.00,VWS V14.01,2013-12-10 14:01:00,
2013-12-10 08:06:00,12.5,2.7,30.03,West,273,3.6,7.2,64,0.00,,---,0.00,VWS V14.01,2013-12-10 14:06:00,
2013-12-10 08:11:00,12.7,2.9,30.03,West,259,1.8,3.6,64,0.00,,---,0.00,VWS V14.01,2013-12-10 14:11:00,
2013-12-10 08:16:00,12.9,3.4,30.03,SW,231,3.6,3.6,65,0.00,,---,0.00,VWS V14.01,2013-12-10 14:16:00,
2013-12-10 08:21:00,13.1,3.6,30.04,SW,228,3.6,3.6,65,0.00,,---,0.00,VWS V14.01,2013-12-10 14:21:00,
2013-12-10 08:26:00,13.5,4.3,30.04,WNW,284,5.4,7.2,66,0.00,,---,0.00,VWS V14.01,2013-12-10 14:26:00,
2013-12-10 08:31:00,13.9,4.7,30.04,WSW,248,3.6,3.6,66,0.00,,---,0.00,VWS V14.01,2013-12-10 14:31:00,
2013-12-10 08:36:00,14.4,5.1,30.04,WSW,246,7.2,7.2,66,0.00,,---,0.00,VWS V14.01,2013-12-10 14:36:00,
2013-12-10 08:41:00,15.0,5.7,30.04,West,278,3.6,7.2,66,0.00,,---,0.00,VWS V14.01,2013-12-10 14:41:00,
2013-12-10 08:46:00,15.7,6.7,30.04,WSW,252,3.6,5.4,67,0.00,,---,0.00,VWS V14.01,2013-12-10 14:46:00,
2013-12-10 08:51:00,16.2,7.2,30.04,WSW,243,10.8,10.8,67,0.00,,---,0.00,VWS V14.01,2013-12-10 14:51:00,
2013-12-10 08:56:00,16.8,7.8,30.05,WNW,302,5.4,7.2,67,0.00,,---,0.00,VWS V14.01,2013-12-10 14:56:00,
2013-12-10 09:01:00,17.3,8.2,30.05,WNW,297,5.4,7.2,67,0.00,,---,0.00,VWS V14.01,2013-12-10 15:01:00,
2013-12-10 09:06:00,17.5,8.4,30.05,West,274,5.4,10.8,67,0.00,,---,0.00,VWS V14.01,2013-12-10 15:06:00,
2013-12-10 09:11:00,17.8,8.7,30.05,WNW,285,3.6,14.4,67,0.00,,---,0.00,VWS V14.01,2013-12-10 15:11:00,
2013-12-10 09:16:00,18.0,8.9,30.05,WNW,283,9.0,12.6,67,0.00,,---,0.00,VWS V14.01,2013-12-10 15:16:00,
2013-12-10 09:21:00,18.1,9.0,30.05,West,280,12.6,12.6,67,0.00,,---,0.00,VWS V14.01,2013-12-10 15:21:00,
2013-12-10 09:26:00,18.2,9.4,30.06,SSW,207,5.4,9.0,68,0.00,,---,0.00,VWS V14.01,2013-12-10 15:26:00,
2013-12-10 09:31:00,18.2,9.4,30.07,WNW,297,14.4,16.2,68,0.00,,---,0.00,VWS V14.01,2013-12-10 15:31:00,
2013-12-10 09:36:00,18.2,9.4,30.08,West,264,7.2,7.2,68,0.00,,---,0.00,VWS V14.01,2013-12-10 15:36:00,
2013-12-10 09:41:00,18.3,9.5,30.08,NW,319,7.2,9.0,68,0.00,,---,0.00,VWS V14.01,2013-12-10 15:41:00,
2013-12-10 09:46:00,18.4,9.6,30.07,NW,310,12.6,12.6,68,0.00,,---,0.00,VWS V14.01,2013-12-10 15:46:00,
2013-12-10 09:51:00,18.5,9.7,30.08,WSW,243,9.0,10.8,68,0.00,,---,0.00,VWS V14.01,2013-12-10 15:51:00,
2013-12-10 09:56:00,18.6,9.8,30.08,NW,304,7.2,9.0,68,0.00,,---,0.00,VWS V14.01,2013-12-10 15:56:00,
2013-12-10 10:01:00,18.7,9.9,30.08,West,272,7.2,9.0,68,0.00,,---,0.00,VWS V14.01,2013-12-10 16:01:00,
2013-12-10 10:05:00,18.8,10.0,30.08,West,259,9.0,10.8,68,0.00,,---,0.00,VWS V14.01,2013-12-10 16:05:00,
2013-12-10 10:10:00,19.0,10.2,30.08,West,274,3.6,7.2,68,0.00,,---,0.00,VWS V14.01,2013-12-10 16:10:00,
2013-12-10 10:15:00,19.1,10.2,30.08,NW,315,7.2,12.6,68,0.00,,---,0.00,VWS V14.01,2013-12-10 16:15:00,
2013-12-10 10:20:00,19.1,10.2,30.08,West,273,9.0,12.6,68,0.00,,---,0.00,VWS V14.01,2013-12-10 16:20:00,
2013-12-10 10:25:00,19.1,10.2,30.09,NNW,330,10.8,12.6,68,0.00,,---,0.00,VWS V14.01,2013-12-10 16:25:00,
2013-12-10 10:30:00,19.2,10.7,30.09,WNW,294,9.0,9.0,69,0.00,,---,0.00,VWS V14.01,2013-12-10 16:30:00,
2013-12-10 10:35:00,19.4,10.9,30.09,West,280,10.8,16.2,69,0.00,,---,0.00,VWS V14.01,2013-12-10 16:35:00,
2013-12-10 10:40:00,19.4,10.9,30.10,WSW,256,7.2,9.0,69,0.00,,---,0.00,VWS V14.01,2013-12-10 16:40:00,
2013-12-10 10:45:00,19.6,10.7,30.10,WNW,302,5.4,7.2,68,0.00,,---,0.00,VWS V14.01,2013-12-10 16:45:00,
2013-12-10 10:50:00,19.8,10.9,30.10,WNW,287,18.0,18.0,68,0.00,,---,0.00,VWS V14.01,2013-12-10 16:50:00,
2013-12-10 10:55:00,19.7,10.2,30.10,NW,309,7.2,7.2,66,0.00,,---,0.00,VWS V14.01,2013-12-10 16:55:00,
2013-12-10 11:00:00,19.7,10.2,30.10,WNW,290,5.4,10.8,66,0.00,,---,0.00,VWS V14.01,2013-12-10 17:00:00,
2013-12-10 11:05:00,19.5,10.0,30.11,NW,323,7.2,9.0,66,0.00,,---,0.00,VWS V14.01,2013-12-10 17:05:00,
2013-12-10 11:10:00,19.4,9.9,30.10,NNW,330,10.8,10.8,66,0.00,,---,0.00,VWS V14.01,2013-12-10 17:10:00,
2013-12-10 11:15:00,19.5,10.3,30.10,WNW,293,7.2,7.2,67,0.00,,---,0.00,VWS V14.01,2013-12-10 17:15:00,
2013-12-10 11:20:00,19.5,10.6,30.09,NNW,343,1.8,25.2,68,0.00,,---,0.00,VWS V14.01,2013-12-10 17:20:00,
2013-12-10 11:25:00,19.4,9.6,30.10,WNW,287,12.6,12.6,65,0.00,,---,0.00,VWS V14.01,2013-12-10 17:25:00,
2013-12-10 11:30:00,19.5,9.4,30.11,West,272,10.8,28.8,64,0.00,,---,0.00,VWS V14.01,2013-12-10 17:30:00,
2013-12-10 11:35:00,19.4,9.0,30.10,NW,317,12.6,23.4,63,0.00,,---,0.00,VWS V14.01,2013-12-10 17:35:00,
2013-12-10 11:40:00,19.3,8.5,30.11,NW,321,9.0,18.0,62,0.00,,---,0.00,VWS V14.01,2013-12-10 17:40:00,
2013-12-10 11:45:00,19.3,8.9,30.11,NW,321,9.0,16.2,63,0.00,,---,0.00,VWS V14.01,2013-12-10 17:45:00,
2013-12-10 11:50:00,19.2,8.8,30.11,WNW,290,10.8,14.4,63,0.00,,---,0.00,VWS V14.01,2013-12-10 17:50:00,
2013-12-10 11:55:00,19.2,8.8,30.11,NW,308,10.8,16.2,63,0.00,,---,0.00,VWS V14.01,2013-12-10 17:55:00,
2013-12-10 12:00:00,19.2,8.8,30.11,WSW,255,9.0,12.6,63,0.00,,---,0.00,VWS V14.01,2013-12-10 18:00:00,
2013-12-10 12:05:00,19.5,9.4,30.11,WSW,245,7.2,14.4,64,0.00,,---,0.00,VWS V14.01,2013-12-10 18:05:00,
2013-12-10 12:10:00,19.5,9.1,30.11,West,270,9.0,14.4,63,0.00,,---,0.00,VWS V14.01,2013-12-10 18:10:00,
2013-12-10 12:15:00,19.4,8.6,30.12,SSW,201,3.6,21.6,62,0.00,,---,0.00,VWS V14.01,2013-12-10 18:15:00,
2013-12-10 12:20:00,19.3,8.5,30.12,WNW,293,9.0,25.2,62,0.00,,---,0.00,VWS V14.01,2013-12-10 18:20:00,
2013-12-10 12:25:00,19.4,8.6,30.13,West,273,14.4,16.2,62,0.00,,---,0.00,VWS V14.01,2013-12-10 18:25:00,
2013-12-10 12:30:00,19.5,9.1,30.13,SW,225,7.2,12.6,63,0.00,,---,0.00,VWS V14.01,2013-12-10 18:30:00,
2013-12-10 12:35:00,19.4,9.0,30.13,NW,304,9.0,16.2,63,0.00,,---,0.00,VWS V14.01,2013-12-10 18:35:00,
2013-12-10 12:40:00,19.2,8.4,30.12,WNW,293,5.4,18.0,62,0.00,,---,0.00,VWS V14.01,2013-12-10 18:40:00,
2013-12-10 12:45:00,19.0,8.2,30.12,WSW,258,10.8,19.8,62,0.00,,---,0.00,VWS V14.01,2013-12-10 18:45:00,
2013-12-10 12:50:00,18.9,8.5,30.13,NW,312,7.2,18.0,63,0.00,,---,0.00,VWS V14.01,2013-12-10 18:50:00,
2013-12-10 12:55:00,19.1,8.4,30.13,WNW,284,7.2,19.8,62,0.00,,---,0.00,VWS V14.01,2013-12-10 18:55:00,
2013-12-10 13:00:00,19.1,8.4,30.13,West,267,5.4,12.6,62,0.00,,---,0.00,VWS V14.01,2013-12-10 19:00:00,
2013-12-10 13:05:00,19.3,8.5,30.14,NW,311,3.6,12.6,62,0.00,,---,0.00,VWS V14.01,2013-12-10 19:05:00,
2013-12-10 13:10:00,19.0,7.9,30.14,West,277,12.6,16.2,61,0.00,,---,0.00,VWS V14.01,2013-12-10 19:10:00,
2013-12-10 13:15:00,18.7,8.0,30.15,WNW,302,12.6,23.4,62,0.00,,---,0.00,VWS V14.01,2013-12-10 19:15:00,
2013-12-10 13:20:00,18.6,7.9,30.15,WNW,290,7.2,19.8,62,0.00,,---,0.00,VWS V14.01,2013-12-10 19:20:00,
2013-12-10 13:25:00,18.6,7.5,30.15,West,281,9.0,16.2,61,0.00,,---,0.00,VWS V14.01,2013-12-10 19:25:00,
2013-12-10 13:30:00,18.4,7.0,30.16,NW,318,9.0,23.4,60,0.00,,---,0.00,VWS V14.01,2013-12-10 19:30:00,
2013-12-10 13:35:00,18.4,7.3,30.16,NW,308,12.6,18.0,61,0.00,,---,0.00,VWS V14.01,2013-12-10 19:35:00,
2013-12-10 13:40:00,18.4,7.7,30.16,NW,311,10.8,16.2,62,0.00,,---,0.00,VWS V14.01,2013-12-10 19:40:00,
2013-12-10 13:45:00,18.6,7.9,30.16,West,273,12.6,21.6,62,0.00,,---,0.00,VWS V14.01,2013-12-10 19:45:00,
2013-12-10 13:50:00,18.6,7.9,30.16,West,265,9.0,14.4,62,0.00,,---,0.00,VWS V14.01,2013-12-10 19:50:00,
2013-12-10 13:55:00,18.8,8.1,30.16,West,274,9.0,14.4,62,0.00,,---,0.00,VWS V14.01,2013-12-10 19:55:00,
2013-12-10 14:00:00,18.9,7.8,30.16,WNW,293,7.2,19.8,61,0.00,,---,0.00,VWS V14.01,2013-12-10 20:00:00,
2013-12-10 14:05:00,18.9,8.2,30.17,NW,314,7.2,14.4,62,0.00,,---,0.00,VWS V14.01,2013-12-10 20:05:00,
2013-12-10 14:10:00,19.0,8.2,30.17,WNW,285,7.2,16.2,62,0.00,,---,0.00,VWS V14.01,2013-12-10 20:10:00,
2013-12-10 14:15:00,19.0,8.2,30.17,WSW,256,3.6,12.6,62,0.00,,---,0.00,VWS V14.01,2013-12-10 20:15:00,
2013-12-10 14:20:00,19.0,8.2,30.17,NW,326,3.6,14.4,62,0.00,,---,0.00,VWS V14.01,2013-12-10 20:20:00,
2013-12-10 14:25:00,19.0,8.2,30.17,WNW,283,5.4,12.6,62,0.00,,---,0.00,VWS V14.01,2013-12-10 20:25:00,
2013-12-10 14:30:00,18.8,8.1,30.17,NW,312,5.4,9.0,62,0.00,,---,0.00,VWS V14.01,2013-12-10 20:30:00,
2013-12-10 14:35:00,18.7,7.6,30.17,WNW,288,14.4,16.2,61,0.00,,---,0.00,VWS V14.01,2013-12-10 20:35:00,
2013-12-10 14:40:00,18.5,6.8,30.18,NNW,330,12.6,14.4,60,0.00,,---,0.00,VWS V14.01,2013-12-10 20:40:00,
2013-12-10 14:45:00,18.1,5.7,30.17,NW,315,16.2,19.8,58,0.00,,---,0.00,VWS V14.01,2013-12-10 20:45:00,
2013-12-10 14:50:00,17.9,5.9,30.17,WNW,283,10.8,16.2,59,0.00,,---,0.00,VWS V14.01,2013-12-10 20:50:00,
2013-12-10 14:55:00,17.8,6.1,30.18,NNW,330,7.2,14.4,60,0.00,,---,0.00,VWS V14.01,2013-12-10 20:55:00,
2013-12-10 15:00:00,17.6,6.3,30.18,WNW,285,5.4,14.4,60,0.00,,---,0.00,VWS V14.01,2013-12-10 21:00:00,
2013-12-10 15:05:00,17.6,6.9,30.18,WNW,286,1.8,10.8,62,0.00,,---,0.00,VWS V14.01,2013-12-10 21:05:00,
2013-12-10 15:10:00,17.8,7.1,30.18,WNW,287,5.4,10.8,62,0.00,,---,0.00,VWS V14.01,2013-12-10 21:10:00,
2013-12-10 15:15:00,17.8,6.4,30.19,WNW,301,5.4,18.0,60,0.00,,---,0.00,VWS V14.01,2013-12-10 21:15:00,
2013-12-10 15:20:00,17.9,6.9,30.18,NW,307,5.4,10.8,61,0.00,,---,0.00,VWS V14.01,2013-12-10 21:20:00,
2013-12-10 15:25:00,17.8,6.8,30.19,WNW,296,3.6,12.6,61,0.00,,---,0.00,VWS V14.01,2013-12-10 21:25:00,
2013-12-10 15:30:00,17.7,6.3,30.19,NW,309,5.4,12.6,60,0.00,,---,0.00,VWS V14.01,2013-12-10 21:30:00,
2013-12-10 15:35:00,17.4,5.7,30.19,NNW,327,5.4,16.2,60,0.00,,---,0.00,VWS V14.01,2013-12-10 21:35:00,
2013-12-10 15:40:00,17.1,5.4,30.20,WNW,291,1.8,10.8,60,0.00,,---,0.00,VWS V14.01,2013-12-10 21:40:00,
2013-12-10 15:45:00,16.8,5.2,30.19,NW,309,5.4,14.4,60,0.00,,---,0.00,VWS V14.01,2013-12-10 21:45:00,
2013-12-10 15:50:00,16.5,4.9,30.20,West,281,3.6,12.6,60,0.00,,---,0.00,VWS V14.01,2013-12-10 21:50:00,
2013-12-10 15:55:00,16.3,5.0,30.20,WSW,255,3.6,10.8,60,0.00,,---,0.00,VWS V14.01,2013-12-10 21:55:00,
2013-12-10 16:00:00,16.0,5.1,30.21,West,271,7.2,7.2,61,0.00,,---,0.00,VWS V14.01,2013-12-10 22:00:00,
2013-12-10 16:05:00,15.8,5.2,30.21,West,277,3.6,9.0,62,0.00,,---,0.00,VWS V14.01,2013-12-10 22:05:00,
2013-12-10 16:10:00,15.5,5.2,30.21,WNW,300,5.4,5.4,63,0.00,,---,0.00,VWS V14.01,2013-12-10 22:10:00,
2013-12-10 16:15:00,15.1,5.2,30.21,NW,304,3.6,5.4,64,0.00,,---,0.00,VWS V14.01,2013-12-10 22:15:00,
2013-12-10 16:20:00,14.7,4.8,30.21,WNW,285,3.6,5.4,64,0.00,,---,0.00,VWS V14.01,2013-12-10 22:20:00,
2013-12-10 16:25:00,14.4,4.8,30.20,WNW,293,3.6,5.4,65,0.00,,---,0.00,VWS V14.01,2013-12-10 22:25:00,
2013-12-10 16:30:00,14.1,4.6,30.20,NW,318,3.6,3.6,65,0.00,,---,0.00,VWS V14.01,2013-12-10 22:30:00,
2013-12-10 16:35:00,14.1,4.9,30.19,WNW,297,1.8,5.4,66,0.00,,---,0.00,VWS V14.01,2013-12-10 22:35:00,
2013-12-10 16:40:00,14.2,4.6,30.20,WSW,257,0.0,1.8,65,0.00,,---,0.00,VWS V14.01,2013-12-10 22:40:00,
2013-12-10 16:45:00,14.2,4.6,30.21,WSW,238,0.0,0.0,65,0.00,,---,0.00,VWS V14.01,2013-12-10 22:45:00,
2013-12-10 16:50:00,14.1,4.9,30.21,WSW,239,0.0,0.0,66,0.00,,---,0.00,VWS V14.01,2013-12-10 22:50:00,
2013-12-10 16:55:00,13.9,4.7,30.21,WSW,242,0.0,0.0,66,0.00,,---,0.00,VWS V14.01,2013-12-10 22:55:00,
2013-12-10 17:00:00,13.7,4.8,30.21,WNW,290,1.8,5.4,67,0.00,,---,0.00,VWS V14.01,2013-12-10 23:00:00,
2013-12-10 17:05:00,13.4,4.5,30.21,WNW,293,0.0,1.8,67,0.00,,---,0.00,VWS V14.01,2013-12-10 23:05:00,
2013-12-10 17:10:00,13.1,4.5,30.21,West,267,0.0,3.6,68,0.00,,---,0.00,VWS V14.01,2013-12-10 23:10:00,
2013-12-10 17:15:00,12.9,4.3,30.20,WNW,285,0.0,0.0,68,0.00,,---,0.00,VWS V14.01,2013-12-10 23:15:00,
2013-12-10 17:20:00,12.8,4.5,30.20,WSW,252,1.8,3.6,69,0.00,,---,0.00,VWS V14.01,2013-12-10 23:20:00,
2013-12-10 17:25:00,12.7,4.4,30.21,WSW,252,1.8,1.8,69,0.00,,---,0.00,VWS V14.01,2013-12-10 23:25:00,
2013-12-10 17:30:00,12.6,4.3,30.21,West,259,0.0,1.8,69,0.00,,---,0.00,VWS V14.01,2013-12-10 23:30:00,
2013-12-10 17:35:00,12.6,4.3,30.21,WNW,303,1.8,1.8,69,0.00,,---,0.00,VWS V14.01,2013-12-10 23:35:00,
2013-12-10 17:40:00,12.6,4.6,30.21,WNW,283,0.0,1.8,70,0.00,,---,0.00,VWS V14.01,2013-12-10 23:40:00,
2013-12-10 17:45:00,12.5,4.5,30.21,WNW,283,0.0,1.8,70,0.00,,---,0.00,VWS V14.01,2013-12-10 23:45:00,
2013-12-10 17:50:00,12.6,4.9,30.22,West,262,1.8,3.6,71,0.00,,---,0.00,VWS V14.01,2013-12-10 23:50:00,
2013-12-10 17:55:00,12.8,4.8,30.22,WSW,255,0.0,3.6,70,0.00,,---,0.00,VWS V14.01,2013-12-10 23:55:00,
2013-12-10 18:00:00,12.9,4.9,30.22,WSW,256,0.0,1.8,70,0.00,,---,0.00,VWS V14.01,2013-12-11 00:00:00,
2013-12-10 18:05:00,12.8,4.8,30.23,WSW,249,1.8,1.8,70,0.00,,---,0.00,VWS V14.01,2013-12-11 00:05:00,
2013-12-10 18:10:00,12.8,5.1,30.24,West,264,1.8,3.6,71,0.00,,---,0.00,VWS V14.01,2013-12-11 00:10:00,
2013-12-10 18:15:00,13.1,5.4,30.24,WSW,248,1.8,3.6,71,0.00,,---,0.00,VWS V14.01,2013-12-11 00:15:00,
2013-12-10 18:20:00,13.3,5.6,30.24,WNW,283,1.8,7.2,71,0.00,,---,0.00,VWS V14.01,2013-12-11 00:20:00,
2013-12-10 18:25:00,13.4,5.7,30.25,SW,233,0.0,3.6,71,0.00,,---,0.00,VWS V14.01,2013-12-11 00:25:00,
2013-12-10 18:30:00,13.5,5.8,30.25,WSW,257,0.0,3.6,71,0.00,,---,0.00,VWS V14.01,2013-12-11 00:30:00,
2013-12-10 18:35:00,13.6,5.9,30.26,West,278,0.0,3.6,71,0.00,,---,0.00,VWS V14.01,2013-12-11 00:35:00,
2013-12-10 18:40:00,13.7,6.2,30.25,West,278,0.0,3.6,72,0.00,,---,0.00,VWS V14.01,2013-12-11 00:40:00,
2013-12-10 18:45:00,13.7,6.2,30.25,West,276,1.8,3.6,72,0.00,,---,0.00,VWS V14.01,2013-12-11 00:45:00,
2013-12-10 18:50:00,13.8,6.3,30.25,WNW,292,1.8,3.6,72,0.00,,---,0.00,VWS V14.01,2013-12-11 00:50:00,
2013-12-10 18:55:00,13.9,6.4,30.25,WNW,286,0.0,1.8,72,0.00,,---,0.00,VWS V14.01,2013-12-11 00:55:00,
2013-12-10 19:00:00,14.1,6.9,30.25,West,264,3.6,5.4,73,0.00,,---,0.00,VWS V14.01,2013-12-11 01:00:00,
2013-12-10 19:05:00,14.6,7.1,30.25,WSW,245,5.4,5.4,72,0.00,,---,0.00,VWS V14.01,2013-12-11 01:05:00,
2013-12-10 19:10:00,15.0,7.2,30.25,NW,307,3.6,5.4,71,0.00,,---,0.00,VWS V14.01,2013-12-11 01:10:00,
2013-12-10 19:15:00,15.3,7.2,30.25,NW,309,1.8,5.4,70,0.00,,---,0.00,VWS V14.01,2013-12-11 01:15:00,
2013-12-10 19:20:00,15.4,7.3,30.24,WNW,294,0.0,3.6,70,0.00,,---,0.00,VWS V14.01,2013-12-11 01:20:00,
2013-12-10 19:25:00,15.4,7.3,30.24,WNW,301,1.8,1.8,70,0.00,,---,0.00,VWS V14.01,2013-12-11 01:25:00,
2013-12-10 19:30:00,15.4,7.3,30.24,SW,219,0.0,5.4,70,0.00,,---,0.00,VWS V14.01,2013-12-11 01:30:00,
2013-12-10 19:35:00,15.5,7.4,30.24,WNW,291,1.8,3.6,70,0.00,,---,0.00,VWS V14.01,2013-12-11 01:35:00,
2013-12-10 19:40:00,15.6,7.5,30.24,WNW,300,1.8,5.4,70,0.00,,---,0.00,VWS V14.01,2013-12-11 01:40:00,
2013-12-10 19:45:00,15.6,7.5,30.24,WSW,256,1.8,1.8,70,0.00,,---,0.00,VWS V14.01,2013-12-11 01:45:00,
2013-12-10 19:50:00,15.7,7.3,30.24,WNW,302,1.8,5.4,69,0.00,,---,0.00,VWS V14.01,2013-12-11 01:50:00,
2013-12-10 19:55:00,15.8,7.4,30.24,WNW,301,1.8,1.8,69,0.00,,---,0.00,VWS V14.01,2013-12-11 01:55:00,
2013-12-10 20:00:00,15.8,7.4,30.23,NW,316,1.8,1.8,69,0.00,,---,0.00,VWS V14.01,2013-12-11 02:00:00,
2013-12-10 20:05:00,15.8,7.1,30.24,West,277,0.0,3.6,68,0.00,,---,0.00,VWS V14.01,2013-12-11 02:05:00,
2013-12-10 20:10:00,15.8,7.1,30.24,West,278,0.0,1.8,68,0.00,,---,0.00,VWS V14.01,2013-12-11 02:10:00,
2013-12-10 20:15:00,15.9,7.2,30.24,WSW,255,0.0,0.0,68,0.00,,---,0.00,VWS V14.01,2013-12-11 02:15:00,
2013-12-10 20:20:00,15.9,7.5,30.25,WSW,257,0.0,0.0,69,0.00,,---,0.00,VWS V14.01,2013-12-11 02:20:00,
2013-12-10 20:25:00,16.0,7.6,30.26,WSW,255,0.0,0.0,69,0.00,,---,0.00,VWS V14.01,2013-12-11 02:25:00,
2013-12-10 20:30:00,16.1,7.7,30.26,WSW,248,3.6,3.6,69,0.00,,---,0.00,VWS V14.01,2013-12-11 02:30:00,
2013-12-10 20:35:00,16.1,7.7,30.27,WSW,243,0.0,5.4,69,0.00,,---,0.00,VWS V14.01,2013-12-11 02:35:00,
2013-12-10 20:40:00,16.2,7.8,30.27,WSW,238,1.8,3.6,69,0.00,,---,0.00,VWS V14.01,2013-12-11 02:40:00,
2013-12-10 20:45:00,16.3,7.6,30.28,West,269,0.0,3.6,68,0.00,,---,0.00,VWS V14.01,2013-12-11 02:45:00,
2013-12-10 20:50:00,16.4,8.0,30.28,SW,231,1.8,5.4,69,0.00,,---,0.00,VWS V14.01,2013-12-11 02:50:00,
2013-12-10 20:55:00,16.5,7.8,30.28,West,269,1.8,5.4,68,0.00,,---,0.00,VWS V14.01,2013-12-11 02:55:00,
2013-12-10 21:00:00,16.6,7.6,30.28,WSW,255,0.0,1.8,67,0.00,,---,0.00,VWS V14.01,2013-12-11 03:00:00,
2013-12-10 21:05:00,16.6,7.6,30.28,WNW,290,0.0,3.6,67,0.00,,---,0.00,VWS V14.01,2013-12-11 03:05:00,
2013-12-10 21:10:00,16.6,7.6,30.28,West,260,0.0,1.8,67,0.00,,---,0.00,VWS V14.01,2013-12-11 03:10:00,
2013-12-10 21:15:00,16.7,7.9,30.28,West,262,0.0,1.8,68,0.00,,---,0.00,VWS V14.01,2013-12-11 03:15:00,
2013-12-10 21:20:00,16.6,7.9,30.28,West,260,0.0,1.8,68,0.00,,---,0.00,VWS V14.01,2013-12-11 03:20:00,
2013-12-10 21:25:00,16.7,7.9,30.28,West,260,0.0,1.8,68,0.00,,---,0.00,VWS V14.01,2013-12-11 03:25:00,
2013-12-10 21:30:00,16.6,8.2,30.28,West,260,0.0,1.8,69,0.00,,---,0.00,VWS V14.01,2013-12-11 03:30:00,
2013-12-10 21:35:00,16.7,7.9,30.28,WSW,250,0.0,3.6,68,0.00,,---,0.00,VWS V14.01,2013-12-11 03:35:00,
2013-12-10 21:40:00,16.7,7.9,30.27,WSW,250,0.0,0.0,68,0.00,,---,0.00,VWS V14.01,2013-12-11 03:40:00,
2013-12-10 21:45:00,16.6,7.9,30.28,WSW,251,0.0,0.0,68,0.00,,---,0.00,VWS V14.01,2013-12-11 03:45:00,
2013-12-10 21:50:00,16.7,7.9,30.28,WSW,250,0.0,0.0,68,0.00,,---,0.00,VWS V14.01,2013-12-11 03:50:00,
2013-12-10 21:55:00,16.7,7.9,30.27,WSW,250,1.8,1.8,68,0.00,,---,0.00,VWS V14.01,2013-12-11 03:55:00,
2013-12-10 22:00:00,16.7,7.7,30.28,ESE,115,0.0,1.8,67,0.00,,---,0.00,VWS V14.01,2013-12-11 04:00:00,
2013-12-10 22:05:00,16.7,7.7,30.28,ESE,115,0.0,0.0,67,0.00,,---,0.00,VWS V14.01,2013-12-11 04:05:00,
2013-12-10 22:10:00,16.7,8.3,30.28,ESE,116,0.0,0.0,69,0.00,,---,0.00,VWS V14.01,2013-12-11 04:10:00,
2013-12-10 22:15:00,16.7,8.3,30.28,ESE,115,0.0,0.0,69,0.00,,---,0.00,VWS V14.01,2013-12-11 04:15:00,
2013-12-10 22:20:00,16.6,8.2,30.28,ESE,116,0.0,0.0,69,0.00,,---,0.00,VWS V14.01,2013-12-11 04:20:00,
2013-12-10 22:25:00,16.7,7.9,30.28,ESE,116,0.0,0.0,68,0.00,,---,0.00,VWS V14.01,2013-12-11 04:25:00,
2013-12-10 22:30:00,16.9,8.1,30.28,ESE,115,0.0,0.0,68,0.00,,---,0.00,VWS V14.01,2013-12-11 04:30:00,
2013-12-10 22:35:00,16.9,8.1,30.29,ESE,116,0.0,0.0,68,0.00,,---,0.00,VWS V14.01,2013-12-11 04:35:00,
2013-12-10 22:40:00,17.0,8.2,30.29,ESE,116,0.0,0.0,68,0.00,,---,0.00,VWS V14.01,2013-12-11 04:40:00,
2013-12-10 22:45:00,16.9,8.1,30.28,ESE,115,0.0,0.0,68,0.00,,---,0.00,VWS V14.01,2013-12-11 04:45:00,
2013-12-10 22:50:00,16.9,8.4,30.28,ESE,115,0.0,0.0,69,0.00,,---,0.00,VWS V14.01,2013-12-11 04:50:00,
2013-12-10 22:55:00,16.9,8.4,30.28,WSW,255,0.0,0.0,69,0.00,,---,0.00,VWS V14.01,2013-12-11 04:55:00,
2013-12-10 23:00:00,17.0,8.8,30.29,WSW,255,0.0,0.0,70,0.00,,---,0.00,VWS V14.01,2013-12-11 05:00:00,
2013-12-10 23:01:00,17.1,8.9,30.29,WSW,255,0.0,0.0,70,0.00,,---,0.00,VWS V14.01,2013-12-11 05:01:00,
2013-12-10 23:06:00,17.1,9.2,30.29,WSW,255,0.0,0.0,71,0.00,,---,0.00,VWS V14.01,2013-12-11 05:06:00,
2013-12-10 23:11:00,17.1,9.5,30.29,WSW,245,0.0,0.0,72,0.00,,---,0.00,VWS V14.01,2013-12-11 05:11:00,
2013-12-10 23:16:00,17.0,9.4,30.29,WSW,245,0.0,0.0,72,0.00,,---,0.00,VWS V14.01,2013-12-11 05:16:00,
2013-12-10 23:21:00,17.0,9.4,30.29,WSW,245,0.0,0.0,72,0.00,,---,0.00,VWS V14.01,2013-12-11 05:21:00,
2013-12-10 23:26:00,16.9,9.6,30.29,WSW,245,0.0,0.0,73,0.00,,---,0.00,VWS V14.01,2013-12-11 05:26:00,
2013-12-10 23:31:00,16.8,9.5,30.29,WSW,243,0.0,0.0,73,0.00,,---,0.00,VWS V14.01,2013-12-11 05:31:00,
2013-12-10 23:36:00,16.8,9.8,30.29,WSW,243,0.0,0.0,73,0.00,,---,0.00,VWS V14.01,2013-12-11 05:36:00,
2013-12-10 23:41:00,16.7,9.7,30.29,WSW,243,0.0,0.0,73,0.00,,---,0.00,VWS V14.01,2013-12-11 05:41:00,
2013-12-10 23:46:00,16.5,9.8,30.29,WSW,243,0.0,0.0,74,0.00,,---,0.00,VWS V14.01,2013-12-11 05:46:00,
2013-12-10 23:51:00,16.5,10.1,30.29,WSW,243,0.0,0.0,75,0.00,,---,0.00,VWS V14.01,2013-12-11 05:51:00,
2013-12-10 23:56:00,16.4,10.2,30.29,ESE,114,0.0,0.0,76,0.00,,---,0.00,VWS V14.01,2013-12-11 05:56:00,